FDX109 EDDP-EGGP
Flight info
| Callsign | FDX109 |
|---|---|
| Flight time | 1h 13m |
| Altitude | 32000 |
| Route | PENEM1X PENEM Y233 EMBOX L986 POVEL DCT ABNED L980 LAM UN57 WELIN T420 ELVOS ELVOS1L |
| Aircraft | A306/H-SDE3FGHIRWY/LB1 |
Departure
| Time | 2026-05-07 21:31 |
|---|---|
| Airport | Leipzig/Halle Airport (EDDP) |
Arrival
| Time | 2026-05-07 22:44 |
|---|---|
| Airport | Liverpool John Lennon Airport (EGGP) |
| Time | Latitude | Longitude | Altitude | Speed | Heading |
|---|---|---|---|---|---|
| 2026-05-07 20:53 | 51.40842 | 12.23576 | 444 ft | 0 kts | 266° |
| 2026-05-07 21:13 | 51.40843 | 12.23590 | 429 ft | 4 kts | 266° |
| 2026-05-07 21:13 | 51.40845 | 12.23627 | 431 ft | 4 kts | 269° |
| 2026-05-07 21:13 | 51.40839 | 12.23663 | 428 ft | 4 kts | 325° |
| 2026-05-07 21:14 | 51.40816 | 12.23675 | 431 ft | 3 kts | 355° |
| 2026-05-07 21:14 | 51.40809 | 12.23676 | 430 ft | 0 kts | 356° |
| 2026-05-07 21:19 | 51.40810 | 12.23676 | 430 ft | 0 kts | 355° |
| 2026-05-07 21:20 | 51.40813 | 12.23676 | 429 ft | 1 kts | 355° |
| 2026-05-07 21:20 | 51.40819 | 12.23674 | 430 ft | 1 kts | 354° |
| 2026-05-07 21:20 | 51.40828 | 12.23672 | 429 ft | 1 kts | 352° |
| 2026-05-07 21:20 | 51.40832 | 12.23671 | 428 ft | 0 kts | 351° |
| 2026-05-07 21:22 | 51.40852 | 12.23669 | 432 ft | 11 kts | 356° |
| 2026-05-07 21:23 | 51.40971 | 12.23656 | 436 ft | 16 kts | 355° |
| 2026-05-07 21:23 | 51.41045 | 12.23583 | 430 ft | 12 kts | 283° |
| 2026-05-07 21:23 | 51.41040 | 12.23429 | 436 ft | 18 kts | 266° |
| 2026-05-07 21:23 | 51.41031 | 12.23235 | 446 ft | 17 kts | 266° |
| 2026-05-07 21:24 | 51.41022 | 12.23010 | 447 ft | 23 kts | 266° |
| 2026-05-07 21:24 | 51.41013 | 12.22764 | 449 ft | 21 kts | 265° |
| 2026-05-07 21:24 | 51.40999 | 12.22532 | 450 ft | 22 kts | 266° |
| 2026-05-07 21:24 | 51.41015 | 12.22333 | 450 ft | 15 kts | 321° |
| 2026-05-07 21:25 | 51.41070 | 12.22199 | 452 ft | 19 kts | 273° |
| 2026-05-07 21:25 | 51.41056 | 12.21910 | 454 ft | 29 kts | 265° |
| 2026-05-07 21:25 | 51.41043 | 12.21597 | 455 ft | 28 kts | 266° |
| 2026-05-07 21:25 | 51.41029 | 12.21281 | 457 ft | 28 kts | 265° |
| 2026-05-07 21:26 | 51.41013 | 12.20974 | 458 ft | 27 kts | 265° |
| 2026-05-07 21:26 | 51.40999 | 12.20681 | 460 ft | 25 kts | 265° |
| 2026-05-07 21:26 | 51.41024 | 12.20496 | 461 ft | 17 kts | 327° |
| 2026-05-07 21:26 | 51.41149 | 12.20521 | 461 ft | 20 kts | 14° |
| 2026-05-07 21:27 | 51.41299 | 12.20585 | 461 ft | 23 kts | 15° |
| 2026-05-07 21:27 | 51.41452 | 12.20654 | 459 ft | 23 kts | 16° |
| 2026-05-07 21:27 | 51.41605 | 12.20724 | 458 ft | 23 kts | 16° |
| 2026-05-07 21:27 | 51.41759 | 12.20790 | 455 ft | 23 kts | 13° |
| 2026-05-07 21:28 | 51.41914 | 12.20855 | 452 ft | 24 kts | 17° |
| 2026-05-07 21:28 | 51.42089 | 12.20934 | 447 ft | 31 kts | 14° |
| 2026-05-07 21:28 | 51.42294 | 12.21020 | 432 ft | 30 kts | 15° |
| 2026-05-07 21:28 | 51.42499 | 12.21108 | 437 ft | 30 kts | 15° |
| 2026-05-07 21:29 | 51.42695 | 12.21197 | 427 ft | 29 kts | 15° |
| 2026-05-07 21:29 | 51.42823 | 12.21256 | 422 ft | 29 kts | 17° |
| 2026-05-07 21:29 | 51.42944 | 12.21363 | 419 ft | 17 kts | 45° |
| 2026-05-07 21:29 | 51.43028 | 12.21502 | 427 ft | 18 kts | 46° |
| 2026-05-07 21:30 | 51.43105 | 12.21639 | 421 ft | 16 kts | 55° |
| 2026-05-07 21:30 | 51.43138 | 12.21797 | 436 ft | 0 kts | 88° |
| 2026-05-07 21:30 | 51.43144 | 12.21974 | 435 ft | 47 kts | 86° |
| 2026-05-07 21:31 | 51.43194 | 12.23003 | 431 ft | 134 kts | 86° |
| 2026-05-07 21:31 | 51.43275 | 12.24819 | 961 ft | 177 kts | 84° |
| 2026-05-07 21:31 | 51.43461 | 12.26829 | 2244 ft | 193 kts | 73° |
| 2026-05-07 21:31 | 51.43968 | 12.28654 | 3769 ft | 172 kts | 62° |
| 2026-05-07 21:32 | 51.44482 | 12.30469 | 4642 ft | 191 kts | 68° |
| 2026-05-07 21:32 | 51.44945 | 12.32585 | 5347 ft | 210 kts | 72° |
| 2026-05-07 21:32 | 51.45400 | 12.34986 | 5855 ft | 242 kts | 73° |
| 2026-05-07 21:32 | 51.45880 | 12.37690 | 6672 ft | 258 kts | 74° |
| 2026-05-07 21:33 | 51.46406 | 12.40481 | 7688 ft | 265 kts | 67° |
| 2026-05-07 21:33 | 51.47570 | 12.42753 | 8787 ft | 270 kts | 34° |
| 2026-05-07 21:33 | 51.49363 | 12.43619 | 9918 ft | 277 kts | 1° |
| 2026-05-07 21:33 | 51.51201 | 12.42815 | 10916 ft | 284 kts | 334° |
| 2026-05-07 21:34 | 51.52935 | 12.41248 | 11909 ft | 288 kts | 333° |
| 2026-05-07 21:34 | 51.54746 | 12.39841 | 12888 ft | 291 kts | 338° |
| 2026-05-07 21:34 | 51.56572 | 12.38402 | 13809 ft | 297 kts | 325° |
| 2026-05-07 21:34 | 51.57866 | 12.35808 | 14655 ft | 305 kts | 295° |
| 2026-05-07 21:35 | 51.58461 | 12.32517 | 15473 ft | 309 kts | 284° |
| 2026-05-07 21:35 | 51.58966 | 12.29147 | 16287 ft | 312 kts | 285° |
| 2026-05-07 21:35 | 51.59549 | 12.25731 | 16888 ft | 323 kts | 287° |
| 2026-05-07 21:35 | 51.60223 | 12.22180 | 17229 ft | 340 kts | 289° |
| 2026-05-07 21:36 | 51.60904 | 12.18435 | 17526 ft | 357 kts | 290° |
| 2026-05-07 21:36 | 51.62176 | 12.14942 | 17803 ft | 371 kts | 313° |
| 2026-05-07 21:36 | 51.64283 | 12.12398 | 18069 ft | 387 kts | 333° |
| 2026-05-07 21:36 | 51.66801 | 12.10848 | 18550 ft | 395 kts | 339° |
| 2026-05-07 21:37 | 51.69364 | 12.09168 | 19099 ft | 399 kts | 335° |
| 2026-05-07 21:37 | 51.71840 | 12.07112 | 19678 ft | 402 kts | 325° |
| 2026-05-07 21:37 | 51.73998 | 12.04216 | 20260 ft | 404 kts | 316° |
| 2026-05-07 21:37 | 51.75944 | 12.00932 | 20826 ft | 407 kts | 311° |
| 2026-05-07 21:38 | 51.77811 | 11.97441 | 21388 ft | 410 kts | 310° |
| 2026-05-07 21:38 | 51.79649 | 11.93911 | 21928 ft | 413 kts | 310° |
| 2026-05-07 21:38 | 51.81504 | 11.90389 | 22461 ft | 416 kts | 310° |
| 2026-05-07 21:38 | 51.83414 | 11.86841 | 22986 ft | 419 kts | 311° |
| 2026-05-07 21:39 | 51.85304 | 11.83235 | 23485 ft | 422 kts | 308° |
| 2026-05-07 21:39 | 51.87069 | 11.79440 | 23932 ft | 424 kts | 305° |
| 2026-05-07 21:39 | 51.88769 | 11.75506 | 24347 ft | 427 kts | 304° |
| 2026-05-07 21:39 | 51.90441 | 11.71506 | 24750 ft | 429 kts | 303° |
| 2026-05-07 21:40 | 51.92105 | 11.67486 | 25128 ft | 432 kts | 303° |
| 2026-05-07 21:40 | 51.93787 | 11.63436 | 25520 ft | 434 kts | 303° |
| 2026-05-07 21:40 | 51.95476 | 11.59392 | 25995 ft | 433 kts | 304° |
| 2026-05-07 21:40 | 51.97175 | 11.55349 | 26554 ft | 431 kts | 304° |
| 2026-05-07 21:41 | 51.98844 | 11.51387 | 27108 ft | 429 kts | 304° |
| 2026-05-07 21:41 | 52.00511 | 11.47379 | 27649 ft | 427 kts | 302° |
| 2026-05-07 21:41 | 52.01898 | 11.43124 | 28200 ft | 426 kts | 293° |
| 2026-05-07 21:41 | 52.02818 | 11.38559 | 28757 ft | 424 kts | 283° |
| 2026-05-07 21:42 | 52.03240 | 11.33838 | 29293 ft | 423 kts | 276° |
| 2026-05-07 21:42 | 52.03438 | 11.29070 | 29727 ft | 425 kts | 273° |
| 2026-05-07 21:42 | 52.03519 | 11.24219 | 29909 ft | 432 kts | 271° |
| 2026-05-07 21:42 | 52.03544 | 11.19309 | 30073 ft | 438 kts | 271° |
| 2026-05-07 21:43 | 52.03553 | 11.14324 | 30242 ft | 444 kts | 271° |
| 2026-05-07 21:43 | 52.03567 | 11.09283 | 30370 ft | 449 kts | 271° |
| 2026-05-07 21:43 | 52.03592 | 11.04200 | 30602 ft | 451 kts | 271° |
| 2026-05-07 21:43 | 52.03627 | 10.99106 | 30931 ft | 451 kts | 271° |
| 2026-05-07 21:44 | 52.03668 | 10.94020 | 31256 ft | 451 kts | 271° |
| 2026-05-07 21:44 | 52.03711 | 10.88932 | 31606 ft | 450 kts | 271° |
| 2026-05-07 21:44 | 52.03754 | 10.83855 | 31956 ft | 450 kts | 271° |
| 2026-05-07 21:44 | 52.03795 | 10.78824 | 32110 ft | 451 kts | 271° |
| 2026-05-07 21:45 | 52.03869 | 10.68797 | 32121 ft | 451 kts | 271° |
| 2026-05-07 21:45 | 52.03934 | 10.58449 | 32121 ft | 450 kts | 271° |
| 2026-05-07 21:46 | 52.03989 | 10.48280 | 32122 ft | 450 kts | 271° |
| 2026-05-07 21:46 | 52.04034 | 10.38107 | 32125 ft | 450 kts | 271° |
| 2026-05-07 21:47 | 52.04072 | 10.28006 | 32122 ft | 450 kts | 270° |
| 2026-05-07 21:47 | 52.04100 | 10.17843 | 32123 ft | 449 kts | 270° |
| 2026-05-07 21:48 | 52.04119 | 10.07704 | 32120 ft | 449 kts | 270° |
| 2026-05-07 21:48 | 52.04130 | 9.97543 | 32124 ft | 449 kts | 270° |
| 2026-05-07 21:49 | 52.04133 | 9.87391 | 32124 ft | 449 kts | 270° |
| 2026-05-07 21:49 | 52.04127 | 9.77248 | 32124 ft | 448 kts | 270° |
| 2026-05-07 21:50 | 52.04111 | 9.67129 | 32120 ft | 448 kts | 270° |
| 2026-05-07 21:50 | 52.04088 | 9.57001 | 32123 ft | 448 kts | 270° |
| 2026-05-07 21:51 | 52.04055 | 9.46885 | 32125 ft | 448 kts | 269° |
| 2026-05-07 21:51 | 52.04014 | 9.36830 | 32121 ft | 448 kts | 269° |
| 2026-05-07 21:52 | 52.03964 | 9.26700 | 32125 ft | 448 kts | 269° |
| 2026-05-07 21:52 | 52.03906 | 9.16591 | 32119 ft | 448 kts | 269° |
| 2026-05-07 21:53 | 52.03839 | 9.06478 | 32123 ft | 448 kts | 269° |
| 2026-05-07 21:53 | 52.03763 | 8.96349 | 32125 ft | 448 kts | 269° |
| 2026-05-07 21:54 | 52.03679 | 8.86304 | 32124 ft | 448 kts | 269° |
| 2026-05-07 21:54 | 52.03588 | 8.76195 | 32120 ft | 447 kts | 269° |
| 2026-05-07 21:55 | 52.03175 | 8.39398 | 32120 ft | 446 kts | 268° |
| 2026-05-07 21:55 | 52.02593 | 7.99119 | 32118 ft | 445 kts | 268° |
| 2026-05-07 21:56 | 52.01877 | 7.58990 | 32117 ft | 444 kts | 267° |
| 2026-05-07 21:56 | 52.01032 | 7.19207 | 32117 ft | 443 kts | 267° |
| 2026-05-07 21:57 | 52.00049 | 6.79272 | 32111 ft | 443 kts | 266° |
| 2026-05-07 21:57 | 51.98929 | 6.39295 | 32101 ft | 443 kts | 266° |
| 2026-05-07 21:58 | 51.97676 | 5.99414 | 32093 ft | 442 kts | 266° |
| 2026-05-07 21:58 | 51.96292 | 5.59678 | 32083 ft | 440 kts | 266° |
| 2026-05-07 21:59 | 51.94781 | 5.20105 | 32078 ft | 439 kts | 265° |
| 2026-05-07 21:59 | 51.93145 | 4.80744 | 32073 ft | 436 kts | 265° |
| 2026-05-07 22:00 | 51.91387 | 4.41613 | 32102 ft | 435 kts | 265° |
| 2026-05-07 22:00 | 51.89513 | 4.02770 | 32093 ft | 435 kts | 265° |
| 2026-05-07 22:01 | 51.87502 | 3.63796 | 32091 ft | 433 kts | 264° |
| 2026-05-07 22:01 | 51.85370 | 3.24992 | 32083 ft | 432 kts | 264° |
| 2026-05-07 22:02 | 51.82914 | 2.86325 | 32095 ft | 431 kts | 263° |
| 2026-05-07 22:02 | 51.80281 | 2.47782 | 32100 ft | 431 kts | 263° |
| 2026-05-07 22:03 | 51.77688 | 2.09442 | 32096 ft | 433 kts | 264° |
| 2026-05-07 22:03 | 51.75359 | 1.70588 | 32081 ft | 434 kts | 263° |
| 2026-05-07 22:04 | 51.73534 | 1.41918 | 32105 ft | 435 kts | 263° |
| 2026-05-07 22:04 | 51.72899 | 1.32197 | 32109 ft | 436 kts | 263° |
| 2026-05-07 22:05 | 51.72256 | 1.22470 | 32087 ft | 436 kts | 263° |
| 2026-05-07 22:05 | 51.71606 | 1.12762 | 32091 ft | 438 kts | 263° |
| 2026-05-07 22:06 | 51.70944 | 1.03010 | 32094 ft | 441 kts | 263° |
| 2026-05-07 22:06 | 51.70268 | 0.93169 | 32101 ft | 441 kts | 262° |
| 2026-05-07 22:07 | 51.69583 | 0.83315 | 32098 ft | 442 kts | 262° |
| 2026-05-07 22:07 | 51.68889 | 0.73453 | 32098 ft | 442 kts | 262° |
| 2026-05-07 22:08 | 51.68187 | 0.63601 | 32104 ft | 442 kts | 262° |
| 2026-05-07 22:08 | 51.67476 | 0.53750 | 32099 ft | 442 kts | 262° |
| 2026-05-07 22:09 | 51.66762 | 0.43961 | 32099 ft | 443 kts | 262° |
| 2026-05-07 22:09 | 51.66031 | 0.34062 | 32095 ft | 444 kts | 262° |
| 2026-05-07 22:10 | 51.65297 | 0.24243 | 32098 ft | 444 kts | 262° |
| 2026-05-07 22:10 | 51.64816 | 0.14338 | 32096 ft | 447 kts | 274° |
| 2026-05-07 22:11 | 51.65599 | 0.09474 | 32097 ft | 451 kts | 290° |
| 2026-05-07 22:11 | 51.67227 | 0.05143 | 32095 ft | 457 kts | 307° |
| 2026-05-07 22:11 | 51.69586 | 0.01649 | 32096 ft | 462 kts | 321° |
| 2026-05-07 22:11 | 51.72290 | -0.01210 | 32088 ft | 463 kts | 325° |
| 2026-05-07 22:12 | 51.77550 | -0.07044 | 32078 ft | 461 kts | 319° |
| 2026-05-07 22:12 | 51.82348 | -0.13880 | 32084 ft | 458 kts | 313° |
| 2026-05-07 22:13 | 51.86819 | -0.21204 | 32075 ft | 456 kts | 311° |
| 2026-05-07 22:13 | 51.91189 | -0.28601 | 32075 ft | 456 kts | 311° |
| 2026-05-07 22:14 | 51.95594 | -0.36026 | 32076 ft | 456 kts | 311° |
| 2026-05-07 22:14 | 52.00004 | -0.43421 | 32074 ft | 456 kts | 311° |
| 2026-05-07 22:15 | 52.03674 | -0.49576 | 32073 ft | 456 kts | 311° |
| 2026-05-07 22:15 | 52.08081 | -0.56986 | 32071 ft | 455 kts | 311° |
| 2026-05-07 22:16 | 52.12473 | -0.64395 | 32070 ft | 454 kts | 311° |
| 2026-05-07 22:16 | 52.16857 | -0.71816 | 32069 ft | 454 kts | 311° |
| 2026-05-07 22:17 | 52.21236 | -0.79251 | 32064 ft | 454 kts | 311° |
| 2026-05-07 22:17 | 52.25743 | -0.86404 | 32065 ft | 458 kts | 319° |
| 2026-05-07 22:18 | 52.33863 | -0.94722 | 32077 ft | 459 kts | 327° |
| 2026-05-07 22:19 | 52.39401 | -0.99932 | 32074 ft | 458 kts | 327° |
| 2026-05-07 22:19 | 52.44859 | -1.05267 | 32052 ft | 460 kts | 326° |
| 2026-05-07 22:20 | 52.50333 | -1.10748 | 32037 ft | 460 kts | 325° |
| 2026-05-07 22:20 | 52.55789 | -1.16253 | 32032 ft | 459 kts | 325° |
| 2026-05-07 22:21 | 52.61233 | -1.21757 | 31940 ft | 456 kts | 325° |
| 2026-05-07 22:21 | 52.63879 | -1.24432 | 31362 ft | 448 kts | 325° |
| 2026-05-07 22:21 | 52.66490 | -1.27075 | 30534 ft | 437 kts | 325° |
| 2026-05-07 22:21 | 52.69071 | -1.29693 | 29248 ft | 435 kts | 325° |
| 2026-05-07 22:22 | 52.71669 | -1.32337 | 27499 ft | 444 kts | 326° |
| 2026-05-07 22:22 | 52.74330 | -1.35053 | 25975 ft | 453 kts | 326° |
| 2026-05-07 22:22 | 52.77029 | -1.37807 | 24642 ft | 457 kts | 326° |
| 2026-05-07 22:22 | 52.79717 | -1.40548 | 23748 ft | 449 kts | 326° |
| 2026-05-07 22:23 | 52.82354 | -1.43242 | 22825 ft | 442 kts | 326° |
| 2026-05-07 22:23 | 52.84956 | -1.45906 | 22089 ft | 438 kts | 326° |
| 2026-05-07 22:23 | 52.87543 | -1.48560 | 21423 ft | 436 kts | 326° |
| 2026-05-07 22:23 | 52.90081 | -1.51167 | 20781 ft | 433 kts | 326° |
| 2026-05-07 22:24 | 52.92633 | -1.53791 | 20171 ft | 430 kts | 326° |
| 2026-05-07 22:24 | 52.95170 | -1.56405 | 19690 ft | 428 kts | 326° |
| 2026-05-07 22:24 | 52.97693 | -1.59007 | 19206 ft | 426 kts | 326° |
| 2026-05-07 22:24 | 53.00198 | -1.61594 | 18769 ft | 423 kts | 326° |
| 2026-05-07 22:25 | 53.02702 | -1.64183 | 18308 ft | 422 kts | 326° |
| 2026-05-07 22:25 | 53.05229 | -1.66630 | 17779 ft | 421 kts | 330° |
| 2026-05-07 22:25 | 53.07705 | -1.69157 | 17252 ft | 416 kts | 318° |
| 2026-05-07 22:25 | 53.09546 | -1.72772 | 16755 ft | 405 kts | 299° |
| 2026-05-07 22:26 | 53.10523 | -1.77015 | 16254 ft | 386 kts | 279° |
| 2026-05-07 22:26 | 53.10537 | -1.81361 | 15760 ft | 369 kts | 258° |
| 2026-05-07 22:26 | 53.09752 | -1.85330 | 15259 ft | 356 kts | 248° |
| 2026-05-07 22:26 | 53.09103 | -1.89251 | 14800 ft | 348 kts | 257° |
| 2026-05-07 22:27 | 53.08811 | -1.93205 | 14338 ft | 341 kts | 264° |
| 2026-05-07 22:27 | 53.08785 | -1.97077 | 13878 ft | 335 kts | 269° |
| 2026-05-07 22:27 | 53.08921 | -2.00925 | 13368 ft | 330 kts | 272° |
| 2026-05-07 22:27 | 53.09148 | -2.04680 | 12858 ft | 324 kts | 274° |
| 2026-05-07 22:28 | 53.09425 | -2.08360 | 12447 ft | 316 kts | 275° |
| 2026-05-07 22:28 | 53.09721 | -2.11940 | 12049 ft | 308 kts | 276° |
| 2026-05-07 22:28 | 53.10024 | -2.15435 | 11652 ft | 301 kts | 276° |
| 2026-05-07 22:28 | 53.10327 | -2.18831 | 11402 ft | 291 kts | 276° |
| 2026-05-07 22:29 | 53.10624 | -2.22111 | 11141 ft | 283 kts | 276° |
| 2026-05-07 22:29 | 53.10915 | -2.25312 | 10856 ft | 277 kts | 276° |
| 2026-05-07 22:29 | 53.11200 | -2.28448 | 10551 ft | 272 kts | 276° |
| 2026-05-07 22:29 | 53.11480 | -2.31534 | 10236 ft | 268 kts | 276° |
| 2026-05-07 22:30 | 53.11757 | -2.34580 | 9903 ft | 265 kts | 276° |
| 2026-05-07 22:30 | 53.12029 | -2.37588 | 9548 ft | 262 kts | 276° |
| 2026-05-07 22:30 | 53.12296 | -2.40544 | 9185 ft | 260 kts | 276° |
| 2026-05-07 22:30 | 53.12563 | -2.43502 | 8802 ft | 257 kts | 276° |
| 2026-05-07 22:31 | 53.12828 | -2.46442 | 8456 ft | 255 kts | 276° |
| 2026-05-07 22:31 | 53.13089 | -2.49349 | 8095 ft | 253 kts | 276° |
| 2026-05-07 22:31 | 53.13347 | -2.52226 | 7745 ft | 250 kts | 276° |
| 2026-05-07 22:31 | 53.13602 | -2.55075 | 7455 ft | 246 kts | 275° |
| 2026-05-07 22:32 | 53.13863 | -2.57867 | 7170 ft | 242 kts | 276° |
| 2026-05-07 22:32 | 53.14128 | -2.60625 | 6889 ft | 238 kts | 276° |
| 2026-05-07 22:32 | 53.14387 | -2.63314 | 6783 ft | 231 kts | 276° |
| 2026-05-07 22:32 | 53.14637 | -2.65906 | 6954 ft | 221 kts | 276° |
| 2026-05-07 22:33 | 53.14873 | -2.68351 | 6861 ft | 212 kts | 276° |
| 2026-05-07 22:33 | 53.15100 | -2.70713 | 6544 ft | 205 kts | 276° |
| 2026-05-07 22:33 | 53.15322 | -2.73061 | 6095 ft | 204 kts | 276° |
| 2026-05-07 22:33 | 53.15544 | -2.75404 | 5578 ft | 205 kts | 276° |
| 2026-05-07 22:34 | 53.15767 | -2.77752 | 5147 ft | 205 kts | 276° |
| 2026-05-07 22:34 | 53.15990 | -2.80110 | 4996 ft | 207 kts | 276° |
| 2026-05-07 22:34 | 53.16216 | -2.82487 | 4980 ft | 207 kts | 276° |
| 2026-05-07 22:34 | 53.16439 | -2.84850 | 4975 ft | 206 kts | 276° |
| 2026-05-07 22:35 | 53.16663 | -2.87216 | 4981 ft | 206 kts | 276° |
| 2026-05-07 22:35 | 53.16887 | -2.89595 | 5458 ft | 209 kts | 276° |
| 2026-05-07 22:35 | 53.17109 | -2.91960 | 6340 ft | 207 kts | 276° |
| 2026-05-07 22:35 | 53.17334 | -2.94355 | 6824 ft | 207 kts | 276° |
| 2026-05-07 22:36 | 53.17552 | -2.96686 | 6959 ft | 202 kts | 275° |
| 2026-05-07 22:36 | 53.17766 | -2.98969 | 6983 ft | 205 kts | 275° |
| 2026-05-07 22:36 | 53.17990 | -3.01411 | 6986 ft | 217 kts | 275° |
| 2026-05-07 22:36 | 53.18222 | -3.03919 | 6973 ft | 220 kts | 276° |
| 2026-05-07 22:37 | 53.18455 | -3.06433 | 6647 ft | 220 kts | 276° |
| 2026-05-07 22:37 | 53.18687 | -3.08918 | 6330 ft | 210 kts | 276° |
| 2026-05-07 22:37 | 53.18906 | -3.11251 | 6118 ft | 197 kts | 276° |
| 2026-05-07 22:37 | 53.19221 | -3.13424 | 5830 ft | 192 kts | 291° |
| 2026-05-07 22:38 | 53.20205 | -3.14863 | 5510 ft | 196 kts | 339° |
| 2026-05-07 22:38 | 53.21532 | -3.14943 | 5329 ft | 188 kts | 3° |
| 2026-05-07 22:38 | 53.22807 | -3.14657 | 5027 ft | 182 kts | 5° |
| 2026-05-07 22:38 | 53.24038 | -3.14366 | 4753 ft | 176 kts | 5° |
| 2026-05-07 22:39 | 53.25232 | -3.14110 | 4372 ft | 171 kts | 4° |
| 2026-05-07 22:39 | 53.26398 | -3.13885 | 3940 ft | 170 kts | 3° |
| 2026-05-07 22:39 | 53.27565 | -3.13672 | 3543 ft | 167 kts | 2° |
| 2026-05-07 22:39 | 53.28711 | -3.13471 | 3122 ft | 164 kts | 2° |
| 2026-05-07 22:40 | 53.29856 | -3.13278 | 2982 ft | 167 kts | 2° |
| 2026-05-07 22:40 | 53.31010 | -3.12990 | 2941 ft | 170 kts | 17° |
| 2026-05-07 22:40 | 53.31829 | -3.11631 | 2975 ft | 167 kts | 64° |
| 2026-05-07 22:40 | 53.32204 | -3.09821 | 3216 ft | 165 kts | 83° |
| 2026-05-07 22:41 | 53.32345 | -3.07936 | 3098 ft | 164 kts | 89° |
| 2026-05-07 22:41 | 53.32435 | -3.06032 | 2813 ft | 162 kts | 88° |
| 2026-05-07 22:41 | 53.32516 | -3.04145 | 2402 ft | 162 kts | 89° |
| 2026-05-07 22:41 | 53.32591 | -3.02353 | 2131 ft | 153 kts | 88° |
| 2026-05-07 22:42 | 53.32681 | -3.00608 | 1856 ft | 148 kts | 88° |
| 2026-05-07 22:42 | 53.32741 | -2.98874 | 1576 ft | 151 kts | 89° |
| 2026-05-07 22:42 | 53.32811 | -2.97111 | 1313 ft | 150 kts | 88° |
| 2026-05-07 22:42 | 53.32890 | -2.95375 | 1081 ft | 146 kts | 88° |
| 2026-05-07 22:43 | 53.32968 | -2.93719 | 966 ft | 138 kts | 88° |
| 2026-05-07 22:43 | 53.33033 | -2.92128 | 786 ft | 136 kts | 88° |
| 2026-05-07 22:43 | 53.33113 | -2.90558 | 581 ft | 136 kts | 86° |
| 2026-05-07 22:43 | 53.33191 | -2.88968 | 392 ft | 136 kts | 87° |
| 2026-05-07 22:44 | 53.33256 | -2.87403 | 204 ft | 134 kts | 87° |
| 2026-05-07 22:44 | 53.33326 | -2.85911 | 99 ft | 124 kts | 87° |
| 2026-05-07 22:44 | 53.33378 | -2.84705 | 97 ft | 66 kts | 86° |
| 2026-05-07 22:44 | 53.33400 | -2.84184 | 96 ft | 41 kts | 86° |
| 2026-05-07 22:45 | 53.33417 | -2.83759 | 96 ft | 28 kts | 86° |
| 2026-05-07 22:45 | 53.33483 | -2.83628 | 98 ft | 15 kts | 359° |
| 2026-05-07 22:45 | 53.33574 | -2.83671 | 96 ft | 13 kts | 306° |
| 2026-05-07 22:45 | 53.33585 | -2.83813 | 97 ft | 12 kts | 265° |
| 2026-05-07 22:46 | 53.33576 | -2.83951 | 96 ft | 12 kts | 265° |
| 2026-05-07 22:46 | 53.33570 | -2.84110 | 98 ft | 16 kts | 267° |
| 2026-05-07 22:46 | 53.33563 | -2.84274 | 96 ft | 16 kts | 264° |
| 2026-05-07 22:46 | 53.33554 | -2.84484 | 99 ft | 22 kts | 266° |
| 2026-05-07 22:47 | 53.33541 | -2.84739 | 95 ft | 22 kts | 265° |
| 2026-05-07 22:47 | 53.33529 | -2.84978 | 95 ft | 17 kts | 265° |
| 2026-05-07 22:47 | 53.33519 | -2.85179 | 98 ft | 18 kts | 265° |
| 2026-05-07 22:47 | 53.33509 | -2.85383 | 99 ft | 17 kts | 265° |
| 2026-05-07 22:48 | 53.33555 | -2.85502 | 99 ft | 11 kts | 346° |
| 2026-05-07 22:48 | 53.33607 | -2.85556 | 100 ft | 8 kts | 285° |
| 2026-05-07 22:48 | 53.33604 | -2.85656 | 96 ft | 9 kts | 265° |
| 2026-05-07 22:48 | 53.33599 | -2.85767 | 98 ft | 10 kts | 266° |
| 2026-05-07 22:49 | 53.33593 | -2.85898 | 98 ft | 14 kts | 266° |
| 2026-05-07 22:49 | 53.33588 | -2.86082 | 95 ft | 14 kts | 266° |
| 2026-05-07 22:49 | 53.33580 | -2.86216 | 99 ft | 0 kts | 254° |
| 2026-05-07 22:49 | 53.33579 | -2.86271 | 98 ft | 6 kts | 270° |
| 2026-05-07 22:50 | 53.33580 | -2.86315 | 98 ft | 3 kts | 264° |
| 2026-05-07 22:50 | 53.33588 | -2.86328 | 97 ft | 1 kts | 329° |
| 2026-05-07 22:50 | 53.33606 | -2.86329 | 97 ft | 3 kts | 354° |
| 2026-05-07 22:50 | 53.33629 | -2.86332 | 98 ft | 3 kts | 355° |
| 2026-05-07 22:51 | 53.33631 | -2.86333 | 98 ft | 0 kts | 355° |